Sunday, May 27, 2018, 5:46 PM GMT
Back to Local

CYBN, Borden, Ont.

Location: , , Canada Lat: 44.25
Local Time: 5:46 PM GMT (17:46 GMT) Lon: -79.917
Time Zone: GMT Elev: 731 ft

Show me the last for .
Show Coded

Time T Td Feel RH Dir Speed Gust Alt SLP Vis Weather Sky Remarks
2018-05-27 17:00 81 66 83 61 150° 14 - 29.89 29.88 9 CLR None
2018-05-27 16:00 79 68 82 69 160° 8 - 29.90 29.89 9 None
2018-05-27 15:00 75 66 78 73 190° 6 - 29.92 29.91 9 CLR None
2018-05-27 14:00 72 64 76 78 130° 6 - 29.92 29.91 9 CLR None
2018-05-27 13:00 68 63 - 82 140° 6 - 29.92 29.92 9 CLR None
2018-05-27 12:00 64 61 - 88 180° 7 - 29.91 29.91 9 FEW099 None
2018-05-27 11:00 59 59 - 100 180° 2 - 29.90 29.90 7 CLR None
2018-05-27 10:55 59 59 - 100 180° 2 - 29.90 - 5 CLR None
2018-05-27 10:07 55 55 - 100 - Calm - 29.89 - 0 CLR None
2018-05-27 10:00 55 55 - 100 - Calm - 29.89 29.90 2 CLR None
2018-05-27 09:58 55 55 - 100 - Calm - 29.90 - 2 CLR None
2018-05-27 09:56 55 55 - 100 - Calm - 29.89 - 0 CLR None
2018-05-27 09:40 55 55 - 100 - Calm - 29.89 - 0 CLR None
2018-05-27 09:20 57 57 - 100 - Calm - 29.88 - 0 CLR None
2018-05-27 09:00 57 57 - 100 - Calm - 29.88 29.89 4 FEW093 None
2018-05-27 08:00 61 59 - 93 170° 3 - 29.88 29.88 9 FEW093 None
2018-05-27 07:00 61 59 - 93 160° 2 - 29.87 29.87 8 CLR None
2018-05-27 06:00 61 59 - 93 140° 6 - 29.87 29.87 8 CLR None
2018-05-27 05:00 63 61 - 93 170° 5 - 29.87 29.87 7 CLR None
2018-05-27 04:00 63 61 - 93 180° 5 - 29.87 29.87 9 CLR None
2018-05-27 03:00 63 63 - 100 160° 3 - 29.87 29.87 9 FEW067 FEW084 FEW097 None
2018-05-27 02:00 64 63 - 93 90° 3 - 29.86 29.85 9 BKN095 None
2018-05-27 01:00 63 63 - 100 70° 3 - 29.83 29.83 9 CLR None
2018-05-27 00:00 68 66 - 93 - Calm - 29.82 29.82 9 FEW098 None
2018-05-26 23:00 68 64 - 88 200° 7 - 29.80 29.80 9 FEW068 FEW074 None
2018-05-26 22:00 68 64 - 88 120° 6 - 29.81 29.80 9 FEW076 FEW083 None
2018-05-26 21:15 66 64 - 93 120° 8 - 29.82 - 9 FEW025 SCT074 SCT091 None
2018-05-26 21:00 66 64 - 93 120° 5 - 29.82 29.82 9 BKN012 BKN091 None
2018-05-26 20:35 64 63 - 93 110° 9 - 29.81 - 6 OVC016 OVC091 None
2018-05-26 20:10 64 63 - 93 40° 7 - 29.83 - 2 VV009 None
2018-05-26 20:09 64 63 - 93 40° 7 - 29.83 - 2 BKN053 BKN077 None
2018-05-26 20:03 64 63 - 93 40° 6 - 29.82 - 1 BKN009 OVC053 OVC064 None
2018-05-26 20:00 64 63 - 93 30° 8 - 29.82 29.82 1 VV003 None
2018-05-26 19:53 64 63 - 93 50° 7 - 29.82 - 1 VV003 None
2018-05-26 19:44 64 63 - 93 340° 8 30 29.83 - 2 VV002 None
2018-05-26 19:23 64 64 - 100 80° 15 29 29.81 - 0 +RA VV001 None
2018-05-26 19:21 66 64 - 93 50° 8 31 29.81 - 0 +RA VV001 None
2018-05-26 19:17 66 64 - 93 360° 14 31 29.81 - 0 +RA VV002 None
2018-05-26 19:14 66 64 - 93 290° 18 31 29.81 - 0 +RA VV002 None
2018-05-26 19:13 66 64 - 93 310° 20 31 29.81 - 0 +RA VV004 None
2018-05-26 19:11 68 64 - 88 310° 15 22 29.79 - 1 +RA VV007 None
2018-05-26 19:09 70 66 - 88 330° 10 21 29.79 - 1 +RA VV013 None
2018-05-26 19:06 72 66 76 83 330° 10 21 29.79 - 2 +RA BKN017 None
2018-05-26 19:04 73 68 77 83 290° 14 21 29.78 - 3 +RA BKN017 None
2018-05-26 19:00 79 64 81 61 170° 6 - 29.76 29.75 7 +RA BKN017 None
2018-05-26 18:59 79 64 81 61 160° 9 - 29.76 - 9 +RA BKN017 None
2018-05-26 18:57 81 64 83 57 160° 12 - 29.75 - 9 +RA SCT017 None
2018-05-26 18:00 84 63 86 48 120° 10 - 29.77 29.76 9 CLR None

Support USWX by starting your Amazon purchase here.